createdAt,value
2018-08-24T00:01:37.745Z,13.70
2018-08-24T00:04:05.411Z,15.93
2018-08-24T00:06:33.377Z,14.70
2018-08-24T00:09:00.425Z,14.07
2018-08-24T00:11:27.479Z,16.08
2018-08-24T00:13:54.630Z,15.00
2018-08-24T00:16:21.781Z,15.07
2018-08-24T00:18:48.824Z,16.10
2018-08-24T00:21:16.793Z,15.40
2018-08-24T00:23:43.849Z,14.30
2018-08-24T00:26:10.892Z,15.60
2018-08-24T00:28:43.245Z,15.65
2018-08-24T00:31:10.315Z,19.77
2018-08-24T00:33:37.772Z,14.00
2018-08-24T00:36:04.825Z,15.00
2018-08-24T00:38:31.869Z,16.33
2018-08-24T00:41:01.011Z,13.95
2018-08-24T00:43:28.222Z,13.82
2018-08-24T00:45:55.272Z,14.30
2018-08-24T00:48:22.732Z,14.15
2018-08-24T00:50:58.411Z,13.62
2018-08-24T00:53:33.089Z,14.13
2018-08-24T00:56:07.999Z,17.95
2018-08-24T00:58:42.623Z,15.48
2018-08-24T01:01:17.832Z,14.63
2018-08-24T01:03:52.684Z,14.38
2018-08-24T01:06:19.791Z,15.05
2018-08-24T01:08:46.835Z,17.02
2018-08-24T01:11:13.883Z,14.68
2018-08-24T01:13:40.937Z,15.18
2018-08-24T01:19:06.847Z,16.02
2018-08-24T01:21:35.359Z,14.70
2018-08-24T01:24:02.413Z,14.80
2018-08-24T01:26:29.462Z,16.40
2018-08-24T01:28:56.473Z,14.65
2018-08-24T01:34:05.147Z,15.13
2018-08-24T01:36:32.193Z,14.02
2018-08-24T01:38:59.239Z,16.37
2018-08-24T01:41:26.262Z,14.55
2018-08-24T01:43:53.338Z,14.95
2018-08-24T01:46:21.410Z,14.13
2018-08-24T01:48:48.458Z,14.40
2018-08-24T01:51:16.741Z,14.50
2018-08-24T01:53:44.398Z,13.45
2018-08-24T01:56:11.699Z,16.35
2018-08-24T01:58:38.979Z,15.45
2018-08-24T02:01:07.082Z,15.23
2018-08-24T02:03:34.747Z,15.07
2018-08-24T02:06:01.798Z,14.93
2018-08-24T02:08:28.840Z,14.73
2018-08-24T02:10:55.853Z,14.87
2018-08-24T02:13:38.303Z,14.65
2018-08-24T02:16:05.347Z,16.30
2018-08-24T02:18:47.355Z,14.45
2018-08-24T02:21:30.063Z,14.80
2018-08-24T02:23:57.110Z,14.50
2018-08-24T02:26:25.085Z,14.43
2018-08-24T02:28:53.470Z,15.35
2018-08-24T02:31:20.710Z,14.55
2018-08-24T02:33:47.731Z,14.70
2018-08-24T02:36:15.330Z,14.70
2018-08-24T02:38:42.383Z,19.02
2018-08-24T02:41:09.425Z,15.68
2018-08-24T02:43:36.471Z,15.98
2018-08-24T02:46:03.431Z,14.82
2018-08-24T02:48:30.469Z,14.65
2018-08-24T02:50:57.519Z,15.85
2018-08-24T02:53:24.560Z,14.68
2018-08-24T02:56:09.020Z,15.90
2018-08-24T02:58:54.118Z,13.93
2018-08-24T03:01:21.144Z,13.98
2018-08-24T03:03:48.183Z,14.73
2018-08-24T03:06:15.338Z,14.82
2018-08-24T03:08:42.387Z,15.40
2018-08-24T03:11:09.443Z,15.52
2018-08-24T03:13:36.485Z,15.02
2018-08-24T03:16:03.577Z,14.65
2018-08-24T03:18:30.685Z,17.75
2018-08-24T03:20:57.738Z,15.63
2018-08-24T03:23:24.780Z,15.45
2018-08-24T03:25:51.828Z,15.68
2018-08-24T03:28:18.883Z,14.38
2018-08-24T03:30:46.302Z,14.98
2018-08-24T03:33:13.497Z,14.60
2018-08-24T03:35:40.535Z,15.02
2018-08-24T03:38:07.687Z,15.13
2018-08-24T03:40:35.560Z,15.25
2018-08-24T03:43:02.606Z,15.68
2018-08-24T03:45:29.653Z,15.48
2018-08-24T03:47:56.706Z,16.12
2018-08-24T03:50:23.750Z,17.73
2018-08-24T03:52:50.856Z,15.27
2018-08-24T03:55:18.256Z,15.85
2018-08-24T03:57:45.310Z,15.65
2018-08-24T04:00:12.463Z,15.88
2018-08-24T04:02:39.812Z,16.52
2018-08-24T04:05:06.859Z,16.02
2018-08-24T04:07:33.915Z,16.35
2018-08-24T04:10:00.958Z,14.98
2018-08-24T04:12:28.111Z,15.48
2018-08-24T04:14:55.156Z,15.05
2018-08-24T04:17:23.539Z,15.27
2018-08-24T04:19:50.593Z,36.08
2018-08-24T04:22:17.636Z,15.80
2018-08-24T04:24:44.683Z,16.40
2018-08-24T04:27:30.054Z,20.50
2018-08-24T04:29:57.077Z,16.00
2018-08-24T04:32:24.163Z,17.55
2018-08-24T04:34:51.228Z,16.95
2018-08-24T04:37:18.254Z,16.35
2018-08-24T04:39:45.313Z,15.88
2018-08-24T04:42:12.356Z,16.73
2018-08-24T04:44:39.401Z,17.00
2018-08-24T04:47:06.424Z,17.73
2018-08-24T04:49:33.805Z,19.77
2018-08-24T04:52:03.107Z,17.77
2018-08-24T04:54:30.154Z,22.40
2018-08-24T04:56:57.209Z,20.02
2018-08-24T04:59:24.361Z,18.55
2018-08-24T05:01:51.392Z,21.70
2018-08-24T05:04:18.459Z,19.62
2018-08-24T05:06:45.604Z,22.95
2018-08-24T05:09:12.658Z,18.87
2018-08-24T05:11:39.701Z,19.75
2018-08-24T05:14:06.854Z,17.95
2018-08-24T05:16:33.905Z,17.62
2018-08-24T05:19:18.865Z,18.98
2018-08-24T05:21:51.050Z,20.45
2018-08-24T05:24:18.913Z,18.92
2018-08-24T05:26:46.062Z,18.58
2018-08-24T05:29:13.311Z,19.92
2018-08-24T05:31:40.367Z,18.08
2018-08-24T05:34:07.412Z,19.27
2018-08-24T05:36:34.457Z,18.48
2018-08-24T05:39:02.945Z,19.98
2018-08-24T05:41:30.045Z,18.35
2018-08-24T05:43:57.144Z,21.42
2018-08-24T05:46:25.172Z,19.40
2018-08-24T05:48:52.334Z,18.80
2018-08-24T05:51:19.727Z,19.27
2018-08-24T05:53:47.074Z,19.33
2018-08-24T05:56:14.224Z,19.70
2018-08-24T05:58:42.404Z,23.73
2018-08-24T06:01:09.449Z,20.83
2018-08-24T06:03:36.599Z,35.25
2018-08-24T06:06:22.262Z,37.53
2018-08-24T06:08:57.697Z,23.55
2018-08-24T06:11:24.780Z,20.10
2018-08-24T06:13:53.159Z,19.60
2018-08-24T06:16:20.208Z,20.17
2018-08-24T06:18:47.266Z,20.27
2018-08-24T06:21:14.306Z,18.55
2018-08-24T06:23:41.564Z,17.17
2018-08-24T06:26:08.607Z,25.23
2018-08-24T06:28:36.270Z,18.83
2018-08-24T06:31:03.324Z,19.80
2018-08-24T06:33:30.571Z,20.80
2018-08-24T06:35:57.630Z,18.02
2018-08-24T06:38:24.724Z,20.98
2018-08-24T06:40:51.821Z,19.40
2018-08-24T06:43:20.098Z,19.67
2018-08-24T06:45:47.153Z,20.67
2018-08-24T06:48:14.196Z,19.73
2018-08-24T06:50:41.245Z,19.02
2018-08-24T06:53:08.351Z,20.88
2018-08-24T06:55:35.452Z,19.12
2018-08-24T06:58:21.328Z,20.67
2018-08-24T07:00:48.588Z,21.40
2018-08-24T07:03:15.643Z,21.10
2018-08-24T07:05:43.636Z,21.02
2018-08-24T07:08:11.173Z,20.50
2018-08-24T07:10:38.215Z,20.45
2018-08-24T07:13:05.525Z,22.65
2018-08-24T07:15:32.724Z,21.27
2018-08-24T07:17:59.779Z,20.60
2018-08-24T07:20:26.930Z,23.17
2018-08-24T07:22:53.972Z,23.10
2018-08-24T07:25:21.020Z,23.15
2018-08-24T07:27:49.095Z,23.38
2018-08-24T07:30:16.146Z,23.50
2018-08-24T07:32:43.191Z,23.52
2018-08-24T07:35:10.342Z,22.20
2018-08-24T07:37:37.912Z,21.87
2018-08-24T07:40:04.953Z,22.17
2018-08-24T07:42:31.999Z,22.77
2018-08-24T07:44:59.559Z,23.20
2018-08-24T07:47:26.585Z,23.80
2018-08-24T07:49:53.760Z,22.15
2018-08-24T07:52:21.709Z,23.55
2018-08-24T07:54:48.779Z,24.37
2018-08-24T07:57:22.681Z,22.73
2018-08-24T07:59:50.152Z,24.52
2018-08-24T08:02:17.194Z,22.73
2018-08-24T08:04:44.248Z,22.55
2018-08-24T08:07:11.399Z,23.90
2018-08-24T08:09:38.518Z,26.80
2018-08-24T08:12:05.593Z,24.25
2018-08-24T08:14:32.643Z,21.77
2018-08-24T08:16:59.696Z,25.12
2018-08-24T08:19:26.743Z,24.12
2018-08-24T08:21:53.789Z,23.00
2018-08-24T08:24:20.941Z,21.92
2018-08-24T08:26:47.995Z,22.87
2018-08-24T08:29:15.043Z,24.75
2018-08-24T08:31:42.297Z,21.70
2018-08-24T08:34:09.315Z,23.55
2018-08-24T08:36:36.600Z,21.58
2018-08-24T08:39:21.562Z,24.48
2018-08-24T08:41:48.719Z,20.88
2018-08-24T08:44:15.760Z,21.37
2018-08-24T08:46:42.808Z,21.77
2018-08-24T08:49:09.862Z,21.65
2018-08-24T08:51:36.905Z,22.52
2018-08-24T08:54:03.958Z,25.12
2018-08-24T08:56:31.009Z,23.35
2018-08-24T08:58:58.051Z,23.55
2018-08-24T09:01:25.102Z,25.37
2018-08-24T09:03:52.252Z,25.42
2018-08-24T09:06:19.353Z,23.00
2018-08-24T09:08:46.485Z,22.48
2018-08-24T09:11:13.500Z,24.15
2018-08-24T09:13:40.548Z,23.38
2018-08-24T09:16:07.602Z,31.42
2018-08-24T09:18:56.048Z,23.42
2018-08-24T09:21:43.068Z,23.80
2018-08-24T09:24:25.064Z,24.35
2018-08-24T09:26:55.665Z,22.80
2018-08-24T09:29:22.746Z,25.00
2018-08-24T09:31:49.896Z,23.90
2018-08-24T09:34:16.949Z,24.00
2018-08-24T09:36:44.198Z,23.05
2018-08-24T09:39:11.252Z,24.05
2018-08-24T09:41:38.295Z,23.92
2018-08-24T09:44:05.343Z,23.45
2018-08-24T09:46:32.571Z,23.15
2018-08-24T09:48:59.668Z,23.38
2018-08-24T09:51:26.800Z,23.73
2018-08-24T09:54:00.916Z,23.17
2018-08-24T09:56:27.961Z,21.48
2018-08-24T09:58:55.315Z,23.65
2018-08-24T10:01:22.570Z,22.02
2018-08-24T10:03:49.618Z,24.02
2018-08-24T10:06:32.541Z,24.33
2018-08-24T10:08:59.587Z,25.00
2018-08-24T10:11:26.639Z,23.20
2018-08-24T10:14:12.126Z,22.65
2018-08-24T10:16:39.166Z,22.45
2018-08-24T10:19:07.238Z,24.10
2018-08-24T10:21:34.293Z,24.80
2018-08-24T10:24:01.506Z,23.38
2018-08-24T10:26:28.593Z,24.20
2018-08-24T10:28:55.808Z,22.90
2018-08-24T10:31:22.895Z,25.80
2018-08-24T10:33:50.085Z,23.45
2018-08-24T10:36:17.567Z,22.65
2018-08-24T10:38:44.655Z,24.00
2018-08-24T10:41:12.741Z,20.77
2018-08-24T10:43:39.771Z,23.00
2018-08-24T10:46:06.821Z,23.12
2018-08-24T10:48:34.997Z,22.50
2018-08-24T10:51:02.892Z,23.75
2018-08-24T10:53:30.525Z,22.23
2018-08-24T10:55:57.716Z,21.17
2018-08-24T10:58:24.727Z,21.15
2018-08-24T11:00:51.779Z,19.58
2018-08-24T11:03:18.822Z,18.77
2018-08-24T11:05:45.875Z,20.65
2018-08-24T11:08:12.924Z,17.50
2018-08-24T11:10:40.889Z,15.43
2018-08-24T11:13:07.938Z,16.15
2018-08-24T11:15:35.090Z,15.63
2018-08-24T11:18:02.554Z,15.10
2018-08-24T11:20:29.606Z,15.98
2018-08-24T11:22:56.671Z,15.05
2018-08-24T11:25:23.941Z,14.07
2018-08-24T11:27:50.950Z,14.93
2018-08-24T11:30:18.267Z,18.50
2018-08-24T11:32:45.563Z,17.70
2018-08-24T11:35:12.569Z,13.57
2018-08-24T11:37:39.660Z,15.50
2018-08-24T11:40:06.906Z,14.48
2018-08-24T11:42:34.162Z,14.55
2018-08-24T11:45:02.436Z,13.48
2018-08-24T11:47:33.125Z,12.93
2018-08-24T11:50:00.426Z,14.27
2018-08-24T11:52:27.586Z,12.90
2018-08-24T11:54:54.628Z,13.43
2018-08-24T11:57:21.673Z,13.77
2018-08-24T11:59:49.916Z,12.40
2018-08-24T12:02:17.004Z,12.77
2018-08-24T12:04:44.048Z,13.73
2018-08-24T12:07:11.410Z,13.18
2018-08-24T12:09:38.553Z,12.50
2018-08-24T12:12:05.669Z,12.93
2018-08-24T12:14:32.650Z,12.90
2018-08-24T12:17:02.357Z,12.37
2018-08-24T12:19:29.411Z,12.63
2018-08-24T12:21:57.994Z,22.55
2018-08-24T12:24:25.134Z,12.70
2018-08-24T12:26:52.297Z,14.10
2018-08-24T12:29:19.828Z,12.63
2018-08-24T12:31:47.009Z,12.20
2018-08-24T12:34:14.366Z,13.93
2018-08-24T12:36:41.418Z,16.15
2018-08-24T12:39:08.460Z,12.73
2018-08-24T12:41:35.509Z,12.52
2018-08-24T12:44:02.661Z,12.35
2018-08-24T12:46:29.916Z,13.15
2018-08-24T12:48:57.063Z,12.20
2018-08-24T12:51:24.215Z,13.23
2018-08-24T12:53:51.473Z,12.93
2018-08-24T12:56:18.517Z,12.37
2018-08-24T12:58:45.669Z,10.90
2018-08-24T13:01:12.927Z,12.68
2018-08-24T13:03:47.392Z,16.98
2018-08-24T13:06:28.903Z,12.10
2018-08-24T13:09:01.576Z,13.82
2018-08-24T13:11:29.045Z,11.63
2018-08-24T13:13:57.322Z,13.80
2018-08-24T13:16:24.402Z,13.38
2018-08-24T13:18:51.785Z,14.48
2018-08-24T13:21:19.327Z,17.85
2018-08-24T13:23:46.471Z,14.60
2018-08-24T13:26:13.620Z,15.75
2018-08-24T13:28:40.769Z,15.95
2018-08-24T13:31:10.023Z,17.25
2018-08-24T13:33:37.395Z,15.30
2018-08-24T13:36:05.279Z,17.48
2018-08-24T13:38:39.842Z,15.07
2018-08-24T13:41:07.277Z,16.35
2018-08-24T13:43:35.006Z,14.40
2018-08-24T13:46:02.192Z,15.23
2018-08-24T13:48:29.442Z,16.02
2018-08-24T13:50:56.496Z,14.95
2018-08-24T13:53:23.541Z,14.68
2018-08-24T13:55:50.593Z,14.90
2018-08-24T13:58:17.743Z,14.32
2018-08-24T14:00:44.891Z,16.85
2018-08-24T14:03:11.944Z,16.42
2018-08-24T14:05:39.158Z,14.27
2018-08-24T14:08:06.342Z,14.43
2018-08-24T14:10:35.105Z,14.63
2018-08-24T14:13:02.336Z,16.25
2018-08-24T14:15:47.069Z,13.95
2018-08-24T14:18:29.077Z,13.60
2018-08-24T14:20:57.238Z,13.20
2018-08-24T14:23:24.272Z,14.60
2018-08-24T14:25:51.325Z,14.23
2018-08-24T14:28:18.572Z,17.08
2018-08-24T14:30:45.825Z,13.65
2018-08-24T14:33:12.977Z,14.02
2018-08-24T14:35:40.330Z,15.35
2018-08-24T14:38:08.488Z,14.73
2018-08-24T14:40:35.657Z,15.50
2018-08-24T14:43:14.259Z,25.85
2018-08-24T14:45:42.663Z,17.95
2018-08-24T14:48:09.915Z,13.62
2018-08-24T14:50:37.063Z,30.88
2018-08-24T14:53:04.116Z,28.70
2018-08-24T14:55:31.363Z,14.10
2018-08-24T14:57:58.418Z,9.43
2018-08-24T15:00:25.460Z,13.13
2018-08-24T15:02:52.510Z,11.20
2018-08-24T15:05:19.564Z,14.02
2018-08-24T15:07:46.608Z,13.07
2018-08-24T15:10:13.659Z,14.75
2018-08-24T15:12:40.709Z,9.10
2018-08-24T15:15:07.753Z,6.93
2018-08-24T15:17:35.108Z,12.20
2018-08-24T15:20:02.162Z,10.35
2018-08-24T15:22:29.206Z,18.08
2018-08-24T15:24:56.254Z,11.82
2018-08-24T15:27:23.311Z,18.40
2018-08-24T15:29:50.377Z,11.15
2018-08-24T15:32:17.399Z,11.88
2018-08-24T15:34:44.552Z,16.27
2018-08-24T15:37:12.111Z,6.60
2018-08-24T15:39:39.569Z,10.57
2018-08-24T15:42:06.619Z,14.90
2018-08-24T15:44:34.857Z,9.65
2018-08-24T15:47:01.944Z,7.90
2018-08-24T15:49:29.204Z,5.70
2018-08-24T15:51:57.142Z,10.52
2018-08-24T15:54:24.078Z,5.93
2018-08-24T15:57:14.065Z,6.90
2018-08-24T15:59:41.157Z,7.82
2018-08-24T16:02:08.198Z,6.47
2018-08-24T16:04:35.247Z,6.05
2018-08-24T16:07:02.261Z,7.60
2018-08-24T16:09:29.346Z,7.50
2018-08-24T16:11:56.494Z,7.65
2018-08-24T16:14:23.649Z,7.25
2018-08-24T16:16:52.012Z,7.10
2018-08-24T16:19:19.080Z,7.65
2018-08-24T16:21:46.228Z,6.82
2018-08-24T16:24:13.281Z,7.20
2018-08-24T16:26:40.429Z,7.43
2018-08-24T16:29:09.073Z,8.07
2018-08-24T16:31:36.575Z,8.50
2018-08-24T16:34:03.618Z,7.85
2018-08-24T16:36:30.748Z,7.95
2018-08-24T16:38:58.743Z,8.48
2018-08-24T16:41:25.993Z,8.68
2018-08-24T16:44:12.388Z,9.88
2018-08-24T16:46:56.709Z,10.35
2018-08-24T16:49:24.002Z,10.52
2018-08-24T16:51:51.052Z,10.35
2018-08-24T16:54:18.307Z,10.73
2018-08-24T16:56:45.355Z,10.82
2018-08-24T16:59:12.408Z,10.63
2018-08-24T17:01:39.450Z,10.85
2018-08-24T17:04:06.465Z,10.88
2018-08-24T17:06:33.650Z,11.02
2018-08-24T17:09:01.112Z,11.43
2018-08-24T17:11:28.168Z,12.02
2018-08-24T17:13:55.211Z,11.05
2018-08-24T17:16:22.534Z,11.38
2018-08-24T17:18:49.617Z,12.37
2018-08-24T17:21:16.970Z,12.90
2018-08-24T17:23:44.227Z,12.77
2018-08-24T17:26:11.378Z,12.10
2018-08-24T17:28:38.500Z,13.23
2018-08-24T17:31:05.683Z,12.98
2018-08-24T17:33:33.444Z,12.93
2018-08-24T17:36:01.518Z,13.25
2018-08-24T17:38:28.560Z,14.20
2018-08-24T17:40:55.609Z,12.75
2018-08-24T17:43:23.374Z,13.50
2018-08-24T17:45:50.832Z,13.52
2018-08-24T17:48:17.984Z,13.23
2018-08-24T17:50:45.039Z,12.70
2018-08-24T17:53:12.496Z,16.52
2018-08-24T17:55:39.585Z,13.48
2018-08-24T17:58:06.691Z,14.18
2018-08-24T18:00:33.948Z,14.63
2018-08-24T18:03:02.734Z,12.85
2018-08-24T18:05:29.985Z,12.65
2018-08-24T18:07:57.860Z,13.25
2018-08-24T18:10:25.011Z,13.75
2018-08-24T18:12:52.054Z,13.98
2018-08-24T18:15:19.410Z,13.32
2018-08-24T18:17:46.465Z,13.60
2018-08-24T18:20:13.614Z,13.55
2018-08-24T18:22:58.374Z,14.10
2018-08-24T18:25:25.553Z,13.35
2018-08-24T18:27:53.084Z,14.30
2018-08-24T18:30:20.443Z,13.80
2018-08-24T18:32:47.495Z,13.02
2018-08-24T18:35:14.953Z,13.93
2018-08-24T18:37:43.027Z,14.02
2018-08-24T18:40:10.179Z,14.90
2018-08-24T18:42:39.281Z,15.55
2018-08-24T18:45:07.661Z,15.05
2018-08-24T18:47:38.472Z,15.57
2018-08-24T18:50:06.879Z,14.63
2018-08-24T18:52:34.809Z,14.57
2018-08-24T18:55:02.605Z,14.93
2018-08-24T18:57:32.613Z,13.07
2018-08-24T18:59:59.979Z,14.65
2018-08-24T19:02:26.999Z,13.55
2018-08-24T19:04:54.072Z,13.90
2018-08-24T19:07:21.343Z,13.05
2018-08-24T19:09:48.896Z,13.65
2018-08-24T19:12:33.254Z,13.43
2018-08-24T19:15:00.802Z,12.32
2018-08-24T19:17:27.821Z,12.18
2018-08-24T19:20:10.672Z,12.13
2018-08-24T19:22:37.998Z,12.57
2018-08-24T19:25:05.286Z,13.02
2018-08-24T19:27:32.434Z,12.02
2018-08-24T19:30:14.331Z,11.80
2018-08-24T19:32:41.591Z,12.65
2018-08-24T19:35:10.763Z,11.85
2018-08-24T19:37:40.987Z,12.20
2018-08-24T19:40:10.081Z,13.55
2018-08-24T19:42:39.760Z,11.93
2018-08-24T19:45:06.975Z,12.55
2018-08-24T19:47:35.546Z,12.27
2018-08-24T19:50:03.617Z,11.75
2018-08-24T19:52:31.900Z,12.13
2018-08-24T19:54:58.992Z,11.98
2018-08-24T19:57:26.203Z,11.65
2018-08-24T20:00:06.384Z,11.95
2018-08-24T20:02:34.942Z,12.15
2018-08-24T20:05:02.221Z,12.70
2018-08-24T20:07:59.942Z,13.38
2018-08-24T20:10:32.451Z,12.37
2018-08-24T20:12:59.708Z,13.73
2018-08-24T20:15:28.791Z,12.90
2018-08-24T20:17:55.834Z,11.48
2018-08-24T20:20:22.883Z,13.57
2018-08-24T20:22:49.939Z,13.23
2018-08-24T20:25:17.184Z,14.25
2018-08-24T20:27:44.643Z,14.05
2018-08-24T20:30:11.699Z,15.35
2018-08-24T20:32:38.739Z,14.80
2018-08-24T20:35:06.002Z,14.90
2018-08-24T20:37:33.042Z,15.40
2018-08-24T20:40:00.355Z,17.10
2018-08-24T20:42:28.266Z,16.20
2018-08-24T20:44:55.314Z,16.87
2018-08-24T20:47:22.388Z,16.98
2018-08-24T20:49:50.230Z,17.30
2018-08-24T20:52:17.289Z,16.85
2018-08-24T20:54:44.329Z,16.17
2018-08-24T20:57:12.094Z,16.92
2018-08-24T20:59:39.143Z,17.52
2018-08-24T21:02:07.020Z,16.87
2018-08-24T21:04:34.165Z,16.98
2018-08-24T21:07:01.420Z,17.65
2018-08-24T21:09:30.000Z,16.42
2018-08-24T21:12:08.296Z,16.20
2018-08-24T21:14:35.414Z,15.85
2018-08-24T21:17:03.024Z,17.58
2018-08-24T21:19:30.278Z,15.90
2018-08-24T21:21:57.429Z,16.40
2018-08-24T21:24:24.476Z,17.73
2018-08-24T21:26:51.531Z,17.12
2018-08-24T21:29:19.338Z,16.73
2018-08-24T21:31:46.852Z,17.00
2018-08-24T21:34:13.912Z,16.60
2018-08-24T21:36:40.949Z,16.35
2018-08-24T21:39:08.920Z,15.68
2018-08-24T21:41:35.973Z,17.02
2018-08-24T21:44:03.019Z,17.30
2018-08-24T21:46:31.196Z,16.95
2018-08-24T21:48:58.241Z,16.75
2018-08-24T21:51:25.289Z,16.92
2018-08-24T21:53:53.157Z,17.40
2018-08-24T21:56:20.205Z,17.25
2018-08-24T21:58:47.328Z,16.58
2018-08-24T22:01:14.411Z,16.62
2018-08-24T22:03:41.454Z,16.15
2018-08-24T22:06:08.504Z,16.02
2018-08-24T22:08:37.192Z,16.52
2018-08-24T22:11:04.244Z,15.50
2018-08-24T22:13:31.288Z,15.77
2018-08-24T22:15:58.546Z,16.10
2018-08-24T22:18:26.208Z,15.75
2018-08-24T22:20:53.252Z,16.83
2018-08-24T22:23:20.403Z,16.37
2018-08-24T22:25:47.457Z,16.17
2018-08-24T22:28:14.956Z,15.30
2018-08-24T22:30:43.085Z,17.25
2018-08-24T22:33:10.235Z,15.50
2018-08-24T22:35:37.291Z,15.18
2018-08-24T22:38:04.333Z,15.48
2018-08-24T22:40:31.381Z,15.27
2018-08-24T22:42:58.433Z,17.27
2018-08-24T22:45:25.480Z,14.90
2018-08-24T22:47:53.250Z,15.07
2018-08-24T22:50:20.294Z,14.55
2018-08-24T22:52:47.311Z,13.05
2018-08-24T22:55:14.391Z,12.23
2018-08-24T22:57:41.454Z,11.63
2018-08-24T23:00:08.496Z,13.40
2018-08-24T23:02:35.646Z,13.77
2018-08-24T23:05:02.796Z,14.52
2018-08-24T23:07:29.841Z,13.50
2018-08-24T23:09:57.098Z,14.85
2018-08-24T23:12:24.144Z,13.57
2018-08-24T23:14:51.188Z,12.30
2018-08-24T23:17:18.860Z,12.32
2018-08-24T23:19:45.901Z,12.50
2018-08-24T23:22:12.949Z,14.23
2018-08-24T23:24:41.122Z,12.45
2018-08-24T23:27:08.172Z,12.82
2018-08-24T23:29:36.147Z,12.68
2018-08-24T23:43:18.324Z,13.57
2018-08-24T23:45:45.380Z,12.73
2018-08-24T23:48:12.423Z,13.07
2018-08-24T23:50:39.470Z,12.13
2018-08-24T23:55:53.336Z,12.43
2018-08-24T23:58:20.380Z,12.82
